Anderson, California
Current Conditions -  °F | °C
As of 11:53 PM on Thursday 23 Oct 2014 (Local Time) from KRDD Reporting Station
Overcast Overcast  
Wind Chill: 14°   Ceiling: 5000
Heat Index: 14°   Visibility: 10mi
Dew Point: 13°   Wind: 8mph
Humidity: 93%   Direction: 310°NW
Pressure: 30.02"   Gusts: NA
Location:  40.45°N, 122.3°W
Report Text: KRDD 240653Z AUTO 31007KT 10SM OVC050 14/13 A3002 RMK AO2 SLP164 T01390128
Loading
Personal Weather Stations






























Interactive Weather Map
Tropical Storm Tracking
New forecast layout! Learn more

10-Day Weather Forecast

Advertisements
Track Severe Weather on mobile